sensor_id;sensor_type;location;lat;lon;timestamp;P1;durP1;ratioP1;P2;durP2;ratioP2
24467;SDS011;12634;50.852;5.676;2023-07-13T00:01:05;4.38;;;1.30;;
24467;SDS011;12634;50.852;5.676;2023-07-13T00:03:34;5.53;;;1.38;;
24467;SDS011;12634;50.852;5.676;2023-07-13T00:06:01;3.25;;;1.15;;
24467;SDS011;12634;50.852;5.676;2023-07-13T00:08:30;5.22;;;1.55;;
24467;SDS011;12634;50.852;5.676;2023-07-13T00:10:59;5.78;;;1.08;;
24467;SDS011;12634;50.852;5.676;2023-07-13T00:13:26;4.93;;;1.20;;
24467;SDS011;12634;50.852;5.676;2023-07-13T00:15:54;4.47;;;1.20;;
24467;SDS011;12634;50.852;5.676;2023-07-13T00:18:22;4.55;;;1.10;;
24467;SDS011;12634;50.852;5.676;2023-07-13T00:20:50;3.75;;;0.90;;
24467;SDS011;12634;50.852;5.676;2023-07-13T00:23:18;8.43;;;1.40;;
24467;SDS011;12634;50.852;5.676;2023-07-13T00:25:45;3.97;;;1.15;;
24467;SDS011;12634;50.852;5.676;2023-07-13T00:28:12;5.80;;;1.30;;
24467;SDS011;12634;50.852;5.676;2023-07-13T00:30:40;4.80;;;1.30;;
24467;SDS011;12634;50.852;5.676;2023-07-13T00:33:07;6.95;;;1.25;;
24467;SDS011;12634;50.852;5.676;2023-07-13T00:35:34;2.65;;;0.98;;
24467;SDS011;12634;50.852;5.676;2023-07-13T00:38:04;5.82;;;1.80;;
24467;SDS011;12634;50.852;5.676;2023-07-13T00:40:32;3.42;;;0.98;;
24467;SDS011;12634;50.852;5.676;2023-07-13T00:42:59;4.90;;;1.10;;
24467;SDS011;12634;50.852;5.676;2023-07-13T00:48:32;4.38;;;0.90;;
24467;SDS011;12634;50.852;5.676;2023-07-13T00:51:03;4.05;;;1.02;;
24467;SDS011;12634;50.852;5.676;2023-07-13T00:53:32;7.10;;;1.30;;
24467;SDS011;12634;50.852;5.676;2023-07-13T00:56:00;6.82;;;1.60;;
24467;SDS011;12634;50.852;5.676;2023-07-13T00:58:29;3.92;;;1.20;;
24467;SDS011;12634;50.852;5.676;2023-07-13T01:00:56;8.05;;;1.33;;
24467;SDS011;12634;50.852;5.676;2023-07-13T01:03:24;3.78;;;1.15;;
24467;SDS011;12634;50.852;5.676;2023-07-13T01:05:51;8.35;;;1.45;;
24467;SDS011;12634;50.852;5.676;2023-07-13T01:08:19;4.82;;;1.63;;
24467;SDS011;12634;50.852;5.676;2023-07-13T01:10:55;6.55;;;1.58;;
24467;SDS011;12634;50.852;5.676;2023-07-13T01:13:24;7.97;;;1.25;;
24467;SDS011;12634;50.852;5.676;2023-07-13T01:15:52;5.55;;;1.20;;
24467;SDS011;12634;50.852;5.676;2023-07-13T01:18:21;4.75;;;1.20;;
24467;SDS011;12634;50.852;5.676;2023-07-13T01:20:53;4.22;;;1.40;;
24467;SDS011;12634;50.852;5.676;2023-07-13T01:23:21;8.07;;;1.30;;
24467;SDS011;12634;50.852;5.676;2023-07-13T01:25:49;8.38;;;1.17;;
24467;SDS011;12634;50.852;5.676;2023-07-13T01:28:17;4.65;;;1.17;;
24467;SDS011;12634;50.852;5.676;2023-07-13T01:30:45;4.13;;;1.10;;
24467;SDS011;12634;50.852;5.676;2023-07-13T01:33:13;5.65;;;1.17;;
24467;SDS011;12634;50.852;5.676;2023-07-13T01:35:43;2.85;;;0.85;;
24467;SDS011;12634;50.852;5.676;2023-07-13T01:38:12;5.40;;;1.10;;
24467;SDS011;12634;50.852;5.676;2023-07-13T01:40:41;4.85;;;1.30;;
24467;SDS011;12634;50.852;5.676;2023-07-13T01:43:09;4.75;;;1.17;;
24467;SDS011;12634;50.852;5.676;2023-07-13T01:45:37;7.00;;;1.23;;
24467;SDS011;12634;50.852;5.676;2023-07-13T01:48:04;4.50;;;1.42;;
24467;SDS011;12634;50.852;5.676;2023-07-13T01:50:33;4.50;;;1.40;;
24467;SDS011;12634;50.852;5.676;2023-07-13T01:53:00;5.45;;;1.15;;
24467;SDS011;12634;50.852;5.676;2023-07-13T01:55:29;5.80;;;1.35;;
24467;SDS011;12634;50.852;5.676;2023-07-13T01:57:58;7.20;;;1.33;;
24467;SDS011;12634;50.852;5.676;2023-07-13T02:00:25;5.85;;;1.27;;
24467;SDS011;12634;50.852;5.676;2023-07-13T02:02:52;10.55;;;1.73;;
24467;SDS011;12634;50.852;5.676;2023-07-13T02:05:20;6.28;;;1.25;;
24467;SDS011;12634;50.852;5.676;2023-07-13T02:07:47;7.78;;;1.92;;
24467;SDS011;12634;50.852;5.676;2023-07-13T02:10:14;6.45;;;2.03;;
24467;SDS011;12634;50.852;5.676;2023-07-13T02:12:43;8.57;;;1.90;;
24467;SDS011;12634;50.852;5.676;2023-07-13T02:15:11;5.20;;;1.67;;
24467;SDS011;12634;50.852;5.676;2023-07-13T02:17:38;6.57;;;1.58;;
24467;SDS011;12634;50.852;5.676;2023-07-13T02:20:06;5.32;;;1.33;;
24467;SDS011;12634;50.852;5.676;2023-07-13T02:22:34;7.22;;;1.38;;
24467;SDS011;12634;50.852;5.676;2023-07-13T02:25:02;6.22;;;1.63;;
24467;SDS011;12634;50.852;5.676;2023-07-13T02:27:29;3.67;;;1.08;;
24467;SDS011;12634;50.852;5.676;2023-07-13T02:29:58;4.65;;;1.58;;
24467;SDS011;12634;50.852;5.676;2023-07-13T02:32:25;9.38;;;1.63;;
24467;SDS011;12634;50.852;5.676;2023-07-13T02:34:52;7.38;;;1.80;;
24467;SDS011;12634;50.852;5.676;2023-07-13T02:37:20;7.60;;;1.52;;
24467;SDS011;12634;50.852;5.676;2023-07-13T02:39:47;4.78;;;1.58;;
24467;SDS011;12634;50.852;5.676;2023-07-13T02:42:14;5.55;;;1.38;;
24467;SDS011;12634;50.852;5.676;2023-07-13T02:44:42;6.82;;;1.85;;
24467;SDS011;12634;50.852;5.676;2023-07-13T02:47:11;6.38;;;1.70;;
24467;SDS011;12634;50.852;5.676;2023-07-13T02:49:38;4.75;;;1.50;;
24467;SDS011;12634;50.852;5.676;2023-07-13T02:52:05;7.88;;;1.45;;
24467;SDS011;12634;50.852;5.676;2023-07-13T02:54:33;8.65;;;1.92;;
24467;SDS011;12634;50.852;5.676;2023-07-13T02:57:00;7.68;;;1.75;;
24467;SDS011;12634;50.852;5.676;2023-07-13T02:59:28;7.00;;;1.50;;
24467;SDS011;12634;50.852;5.676;2023-07-13T03:01:55;7.05;;;1.90;;
24467;SDS011;12634;50.852;5.676;2023-07-13T03:04:24;5.78;;;1.65;;
24467;SDS011;12634;50.852;5.676;2023-07-13T03:06:51;8.52;;;1.58;;
24467;SDS011;12634;50.852;5.676;2023-07-13T03:09:22;10.93;;;2.10;;
24467;SDS011;12634;50.852;5.676;2023-07-13T03:11:52;3.80;;;1.25;;
24467;SDS011;12634;50.852;5.676;2023-07-13T03:14:21;5.53;;;1.38;;
24467;SDS011;12634;50.852;5.676;2023-07-13T03:16:49;7.47;;;1.83;;
24467;SDS011;12634;50.852;5.676;2023-07-13T03:19:17;5.47;;;1.65;;
24467;SDS011;12634;50.852;5.676;2023-07-13T03:21:46;6.90;;;1.90;;
24467;SDS011;12634;50.852;5.676;2023-07-13T03:24:13;6.63;;;1.60;;
24467;SDS011;12634;50.852;5.676;2023-07-13T03:26:40;6.55;;;1.67;;
24467;SDS011;12634;50.852;5.676;2023-07-13T03:29:08;8.02;;;1.90;;
24467;SDS011;12634;50.852;5.676;2023-07-13T03:31:36;9.63;;;1.80;;
24467;SDS011;12634;50.852;5.676;2023-07-13T03:34:03;7.88;;;1.77;;
24467;SDS011;12634;50.852;5.676;2023-07-13T03:36:31;6.50;;;2.00;;
24467;SDS011;12634;50.852;5.676;2023-07-13T03:39:01;4.18;;;1.30;;
24467;SDS011;12634;50.852;5.676;2023-07-13T03:41:31;9.18;;;1.45;;
24467;SDS011;12634;50.852;5.676;2023-07-13T03:43:58;6.68;;;1.70;;
24467;SDS011;12634;50.852;5.676;2023-07-13T03:46:26;8.70;;;1.63;;
24467;SDS011;12634;50.852;5.676;2023-07-13T03:48:53;10.70;;;2.00;;
24467;SDS011;12634;50.852;5.676;2023-07-13T03:51:20;9.82;;;1.85;;
24467;SDS011;12634;50.852;5.676;2023-07-13T03:53:48;6.82;;;1.90;;
24467;SDS011;12634;50.852;5.676;2023-07-13T03:56:17;7.38;;;2.00;;
24467;SDS011;12634;50.852;5.676;2023-07-13T03:58:46;6.75;;;1.90;;
24467;SDS011;12634;50.852;5.676;2023-07-13T04:01:15;12.73;;;2.35;;
24467;SDS011;12634;50.852;5.676;2023-07-13T04:03:43;6.00;;;1.83;;
24467;SDS011;12634;50.852;5.676;2023-07-13T04:06:13;6.57;;;1.67;;
24467;SDS011;12634;50.852;5.676;2023-07-13T04:08:46;7.88;;;2.03;;
24467;SDS011;12634;50.852;5.676;2023-07-13T04:11:17;9.55;;;2.00;;
24467;SDS011;12634;50.852;5.676;2023-07-13T04:13:44;6.60;;;1.85;;
24467;SDS011;12634;50.852;5.676;2023-07-13T04:16:12;6.90;;;1.75;;
24467;SDS011;12634;50.852;5.676;2023-07-13T04:18:40;6.95;;;2.22;;
24467;SDS011;12634;50.852;5.676;2023-07-13T04:21:07;10.45;;;2.35;;
24467;SDS011;12634;50.852;5.676;2023-07-13T04:23:35;7.13;;;1.92;;
24467;SDS011;12634;50.852;5.676;2023-07-13T04:26:02;6.95;;;2.30;;
24467;SDS011;12634;50.852;5.676;2023-07-13T04:28:31;7.75;;;1.60;;
24467;SDS011;12634;50.852;5.676;2023-07-13T04:30:59;6.68;;;1.83;;
24467;SDS011;12634;50.852;5.676;2023-07-13T04:33:27;6.30;;;1.45;;
24467;SDS011;12634;50.852;5.676;2023-07-13T04:35:54;6.15;;;1.40;;
24467;SDS011;12634;50.852;5.676;2023-07-13T04:38:23;8.65;;;1.60;;
24467;SDS011;12634;50.852;5.676;2023-07-13T04:40:53;5.40;;;1.83;;
24467;SDS011;12634;50.852;5.676;2023-07-13T04:43:22;7.85;;;1.73;;
24467;SDS011;12634;50.852;5.676;2023-07-13T04:45:51;6.47;;;1.65;;
24467;SDS011;12634;50.852;5.676;2023-07-13T04:48:19;3.70;;;1.20;;
24467;SDS011;12634;50.852;5.676;2023-07-13T04:50:47;6.57;;;1.80;;
24467;SDS011;12634;50.852;5.676;2023-07-13T04:53:20;3.88;;;1.48;;
24467;SDS011;12634;50.852;5.676;2023-07-13T04:55:47;7.47;;;1.60;;
24467;SDS011;12634;50.852;5.676;2023-07-13T04:58:14;9.35;;;1.75;;
24467;SDS011;12634;50.852;5.676;2023-07-13T05:00:42;9.35;;;1.73;;
24467;SDS011;12634;50.852;5.676;2023-07-13T05:03:11;6.75;;;1.70;;
24467;SDS011;12634;50.852;5.676;2023-07-13T05:05:38;6.93;;;2.25;;
24467;SDS011;12634;50.852;5.676;2023-07-13T05:08:06;9.02;;;2.10;;
24467;SDS011;12634;50.852;5.676;2023-07-13T05:10:33;7.88;;;1.40;;
24467;SDS011;12634;50.852;5.676;2023-07-13T05:13:01;9.55;;;2.00;;
24467;SDS011;12634;50.852;5.676;2023-07-13T05:15:28;8.73;;;1.65;;
24467;SDS011;12634;50.852;5.676;2023-07-13T05:17:56;7.30;;;1.67;;
24467;SDS011;12634;50.852;5.676;2023-07-13T05:20:24;6.35;;;1.50;;
24467;SDS011;12634;50.852;5.676;2023-07-13T05:22:52;8.23;;;1.92;;
24467;SDS011;12634;50.852;5.676;2023-07-13T05:25:19;7.93;;;1.70;;
24467;SDS011;12634;50.852;5.676;2023-07-13T05:27:46;6.32;;;1.42;;
24467;SDS011;12634;50.852;5.676;2023-07-13T05:30:14;7.90;;;1.67;;
24467;SDS011;12634;50.852;5.676;2023-07-13T05:32:41;10.93;;;1.85;;
24467;SDS011;12634;50.852;5.676;2023-07-13T05:35:08;9.80;;;1.65;;
24467;SDS011;12634;50.852;5.676;2023-07-13T05:37:38;5.97;;;1.52;;
24467;SDS011;12634;50.852;5.676;2023-07-13T05:40:06;7.25;;;1.80;;
24467;SDS011;12634;50.852;5.676;2023-07-13T05:42:34;8.13;;;2.17;;
24467;SDS011;12634;50.852;5.676;2023-07-13T05:45:01;5.32;;;1.63;;
24467;SDS011;12634;50.852;5.676;2023-07-13T05:47:30;11.07;;;1.58;;
24467;SDS011;12634;50.852;5.676;2023-07-13T05:49:57;6.97;;;1.98;;
24467;SDS011;12634;50.852;5.676;2023-07-13T05:52:24;5.50;;;1.92;;
24467;SDS011;12634;50.852;5.676;2023-07-13T05:54:53;12.07;;;2.00;;
24467;SDS011;12634;50.852;5.676;2023-07-13T05:57:20;6.72;;;1.60;;
24467;SDS011;12634;50.852;5.676;2023-07-13T05:59:48;10.68;;;2.20;;
24467;SDS011;12634;50.852;5.676;2023-07-13T06:02:15;10.32;;;1.98;;
24467;SDS011;12634;50.852;5.676;2023-07-13T06:04:43;9.43;;;2.33;;
24467;SDS011;12634;50.852;5.676;2023-07-13T06:07:10;9.10;;;1.90;;
24467;SDS011;12634;50.852;5.676;2023-07-13T06:09:37;11.07;;;2.92;;
24467;SDS011;12634;50.852;5.676;2023-07-13T06:12:07;8.10;;;2.03;;
24467;SDS011;12634;50.852;5.676;2023-07-13T06:14:34;6.68;;;1.73;;
24467;SDS011;12634;50.852;5.676;2023-07-13T06:17:02;9.13;;;1.95;;
24467;SDS011;12634;50.852;5.676;2023-07-13T06:19:29;8.98;;;1.80;;
24467;SDS011;12634;50.852;5.676;2023-07-13T06:21:57;9.68;;;2.17;;
24467;SDS011;12634;50.852;5.676;2023-07-13T06:24:24;9.43;;;2.50;;
24467;SDS011;12634;50.852;5.676;2023-07-13T06:26:52;11.18;;;2.63;;
24467;SDS011;12634;50.852;5.676;2023-07-13T06:29:20;7.78;;;2.17;;
24467;SDS011;12634;50.852;5.676;2023-07-13T06:31:48;5.78;;;1.98;;
24467;SDS011;12634;50.852;5.676;2023-07-13T06:34:15;9.23;;;2.20;;
24467;SDS011;12634;50.852;5.676;2023-07-13T06:36:43;9.13;;;2.50;;
24467;SDS011;12634;50.852;5.676;2023-07-13T06:39:10;13.52;;;2.92;;
24467;SDS011;12634;50.852;5.676;2023-07-13T06:41:38;9.80;;;2.50;;
24467;SDS011;12634;50.852;5.676;2023-07-13T06:44:05;6.57;;;2.20;;
24467;SDS011;12634;50.852;5.676;2023-07-13T06:46:34;11.98;;;2.50;;
24467;SDS011;12634;50.852;5.676;2023-07-13T06:49:01;6.65;;;2.13;;
24467;SDS011;12634;50.852;5.676;2023-07-13T06:51:28;10.25;;;1.73;;
24467;SDS011;12634;50.852;5.676;2023-07-13T06:53:56;8.98;;;2.20;;
24467;SDS011;12634;50.852;5.676;2023-07-13T06:56:23;6.00;;;1.98;;
24467;SDS011;12634;50.852;5.676;2023-07-13T06:58:50;8.98;;;2.10;;
24467;SDS011;12634;50.852;5.676;2023-07-13T07:01:18;11.55;;;2.20;;
24467;SDS011;12634;50.852;5.676;2023-07-13T07:03:46;8.82;;;2.08;;
24467;SDS011;12634;50.852;5.676;2023-07-13T07:06:15;8.55;;;2.22;;
24467;SDS011;12634;50.852;5.676;2023-07-13T07:08:44;11.85;;;2.22;;
24467;SDS011;12634;50.852;5.676;2023-07-13T07:11:12;10.38;;;1.90;;
24467;SDS011;12634;50.852;5.676;2023-07-13T07:13:41;8.52;;;2.10;;
24467;SDS011;12634;50.852;5.676;2023-07-13T07:16:08;6.97;;;2.10;;
24467;SDS011;12634;50.852;5.676;2023-07-13T07:18:35;10.85;;;2.90;;
24467;SDS011;12634;50.852;5.676;2023-07-13T07:21:04;10.10;;;1.85;;
24467;SDS011;12634;50.852;5.676;2023-07-13T07:23:32;6.38;;;2.05;;
24467;SDS011;12634;50.852;5.676;2023-07-13T07:25:59;7.03;;;2.28;;
24467;SDS011;12634;50.852;5.676;2023-07-13T07:28:27;7.25;;;1.73;;
24467;SDS011;12634;50.852;5.676;2023-07-13T07:30:55;6.95;;;2.15;;
24467;SDS011;12634;50.852;5.676;2023-07-13T07:33:24;7.03;;;1.85;;
24467;SDS011;12634;50.852;5.676;2023-07-13T07:35:52;8.52;;;2.13;;
24467;SDS011;12634;50.852;5.676;2023-07-13T07:38:21;11.07;;;2.60;;
24467;SDS011;12634;50.852;5.676;2023-07-13T07:40:48;12.73;;;2.47;;
24467;SDS011;12634;50.852;5.676;2023-07-13T07:43:16;9.48;;;1.90;;
24467;SDS011;12634;50.852;5.676;2023-07-13T07:45:44;8.95;;;2.33;;
24467;SDS011;12634;50.852;5.676;2023-07-13T07:48:12;9.25;;;2.05;;
24467;SDS011;12634;50.852;5.676;2023-07-13T07:50:39;8.23;;;2.47;;
24467;SDS011;12634;50.852;5.676;2023-07-13T07:53:07;7.88;;;1.80;;
24467;SDS011;12634;50.852;5.676;2023-07-13T07:55:37;9.95;;;2.22;;
24467;SDS011;12634;50.852;5.676;2023-07-13T07:58:04;11.77;;;2.40;;
24467;SDS011;12634;50.852;5.676;2023-07-13T08:00:32;8.85;;;2.30;;
24467;SDS011;12634;50.852;5.676;2023-07-13T08:03:00;7.30;;;2.05;;
24467;SDS011;12634;50.852;5.676;2023-07-13T08:05:28;12.63;;;2.22;;
24467;SDS011;12634;50.852;5.676;2023-07-13T08:07:55;10.93;;;1.92;;
24467;SDS011;12634;50.852;5.676;2023-07-13T08:10:22;11.07;;;2.20;;
24467;SDS011;12634;50.852;5.676;2023-07-13T08:12:51;11.07;;;2.10;;
24467;SDS011;12634;50.852;5.676;2023-07-13T08:15:18;8.68;;;2.03;;
24467;SDS011;12634;50.852;5.676;2023-07-13T08:17:47;8.40;;;2.75;;
24467;SDS011;12634;50.852;5.676;2023-07-13T08:20:15;8.15;;;1.63;;
24467;SDS011;12634;50.852;5.676;2023-07-13T08:22:43;13.80;;;2.15;;
24467;SDS011;12634;50.852;5.676;2023-07-13T08:25:10;8.07;;;1.90;;
24467;SDS011;12634;50.852;5.676;2023-07-13T08:27:37;8.27;;;1.95;;
24467;SDS011;12634;50.852;5.676;2023-07-13T08:30:07;10.15;;;2.33;;
24467;SDS011;12634;50.852;5.676;2023-07-13T08:32:35;7.68;;;2.38;;
24467;SDS011;12634;50.852;5.676;2023-07-13T08:35:04;11.05;;;2.55;;
24467;SDS011;12634;50.852;5.676;2023-07-13T08:37:32;7.13;;;2.10;;
24467;SDS011;12634;50.852;5.676;2023-07-13T08:39:59;9.18;;;2.53;;
24467;SDS011;12634;50.852;5.676;2023-07-13T08:42:30;11.70;;;1.85;;
24467;SDS011;12634;50.852;5.676;2023-07-13T08:45:04;6.93;;;2.13;;
24467;SDS011;12634;50.852;5.676;2023-07-13T08:47:44;7.78;;;2.17;;
24467;SDS011;12634;50.852;5.676;2023-07-13T08:50:15;8.75;;;2.13;;
24467;SDS011;12634;50.852;5.676;2023-07-13T08:52:45;10.25;;;2.17;;
24467;SDS011;12634;50.852;5.676;2023-07-13T08:55:14;11.70;;;2.33;;
24467;SDS011;12634;50.852;5.676;2023-07-13T08:57:45;10.85;;;2.35;;
24467;SDS011;12634;50.852;5.676;2023-07-13T09:00:19;10.32;;;2.67;;
24467;SDS011;12634;50.852;5.676;2023-07-13T09:02:48;7.35;;;1.80;;
24467;SDS011;12634;50.852;5.676;2023-07-13T09:05:24;6.95;;;1.95;;
24467;SDS011;12634;50.852;5.676;2023-07-13T09:08:01;11.00;;;2.40;;
24467;SDS011;12634;50.852;5.676;2023-07-13T09:10:37;11.00;;;2.20;;
24467;SDS011;12634;50.852;5.676;2023-07-13T09:13:16;10.10;;;2.30;;
24467;SDS011;12634;50.852;5.676;2023-07-13T09:15:54;7.28;;;1.70;;
24467;SDS011;12634;50.852;5.676;2023-07-13T09:18:23;6.45;;;1.85;;
24467;SDS011;12634;50.852;5.676;2023-07-13T09:20:55;9.32;;;2.33;;
24467;SDS011;12634;50.852;5.676;2023-07-13T09:23:27;7.00;;;1.67;;
24467;SDS011;12634;50.852;5.676;2023-07-13T09:25:59;5.35;;;1.80;;
24467;SDS011;12634;50.852;5.676;2023-07-13T09:28:34;6.55;;;1.73;;
24467;SDS011;12634;50.852;5.676;2023-07-13T09:31:07;6.68;;;1.85;;
24467;SDS011;12634;50.852;5.676;2023-07-13T09:33:38;5.65;;;1.48;;
24467;SDS011;12634;50.852;5.676;2023-07-13T09:36:15;6.38;;;1.63;;
24467;SDS011;12634;50.852;5.676;2023-07-13T09:38:46;6.43;;;1.60;;
24467;SDS011;12634;50.852;5.676;2023-07-13T09:41:18;8.75;;;1.80;;
24467;SDS011;12634;50.852;5.676;2023-07-13T09:44:07;9.10;;;2.13;;
24467;SDS011;12634;50.852;5.676;2023-07-13T09:46:43;6.60;;;1.50;;
24467;SDS011;12634;50.852;5.676;2023-07-13T09:51:40;6.38;;;1.88;;
24467;SDS011;12634;50.852;5.676;2023-07-13T09:54:17;10.73;;;2.05;;
24467;SDS011;12634;50.852;5.676;2023-07-13T09:56:46;5.65;;;1.65;;
24467;SDS011;12634;50.852;5.676;2023-07-13T09:59:19;11.57;;;1.50;;
24467;SDS011;12634;50.852;5.676;2023-07-13T10:01:50;8.02;;;2.58;;
24467;SDS011;12634;50.852;5.676;2023-07-13T10:04:18;9.10;;;1.67;;
24467;SDS011;12634;50.852;5.676;2023-07-13T10:06:46;6.13;;;1.17;;
24467;SDS011;12634;50.852;5.676;2023-07-13T10:09:15;9.60;;;1.70;;
24467;SDS011;12634;50.852;5.676;2023-07-13T10:11:44;5.30;;;1.33;;
24467;SDS011;12634;50.852;5.676;2023-07-13T10:14:13;7.45;;;1.65;;
24467;SDS011;12634;50.852;5.676;2023-07-13T10:16:42;6.43;;;1.73;;
24467;SDS011;12634;50.852;5.676;2023-07-13T10:19:13;6.45;;;1.60;;
24467;SDS011;12634;50.852;5.676;2023-07-13T10:21:47;5.35;;;1.30;;
24467;SDS011;12634;50.852;5.676;2023-07-13T10:24:20;3.35;;;1.23;;
24467;SDS011;12634;50.852;5.676;2023-07-13T10:26:52;9.43;;;1.73;;
24467;SDS011;12634;50.852;5.676;2023-07-13T10:29:22;4.93;;;1.65;;
24467;SDS011;12634;50.852;5.676;2023-07-13T10:31:52;9.00;;;1.95;;
24467;SDS011;12634;50.852;5.676;2023-07-13T10:34:23;7.05;;;1.85;;
24467;SDS011;12634;50.852;5.676;2023-07-13T10:36:51;6.78;;;1.50;;
24467;SDS011;12634;50.852;5.676;2023-07-13T10:39:19;3.63;;;1.38;;
24467;SDS011;12634;50.852;5.676;2023-07-13T10:42:00;7.22;;;1.67;;
24467;SDS011;12634;50.852;5.676;2023-07-13T10:44:30;5.07;;;1.30;;
24467;SDS011;12634;50.852;5.676;2023-07-13T10:47:00;5.78;;;1.30;;
24467;SDS011;12634;50.852;5.676;2023-07-13T10:49:33;7.28;;;1.63;;
24467;SDS011;12634;50.852;5.676;2023-07-13T10:52:02;5.22;;;1.65;;
24467;SDS011;12634;50.852;5.676;2023-07-13T10:54:30;5.05;;;1.50;;
24467;SDS011;12634;50.852;5.676;2023-07-13T10:57:14;5.38;;;1.27;;
24467;SDS011;12634;50.852;5.676;2023-07-13T10:59:44;6.20;;;1.60;;
24467;SDS011;12634;50.852;5.676;2023-07-13T11:02:15;10.15;;;1.40;;
24467;SDS011;12634;50.852;5.676;2023-07-13T11:04:54;4.38;;;1.20;;
24467;SDS011;12634;50.852;5.676;2023-07-13T11:07:24;5.93;;;1.50;;
24467;SDS011;12634;50.852;5.676;2023-07-13T11:09:53;3.78;;;1.30;;
24467;SDS011;12634;50.852;5.676;2023-07-13T11:15:27;5.55;;;1.48;;
24467;SDS011;12634;50.852;5.676;2023-07-13T11:18:12;8.07;;;1.65;;
24467;SDS011;12634;50.852;5.676;2023-07-13T11:20:49;5.75;;;1.48;;
24467;SDS011;12634;50.852;5.676;2023-07-13T11:23:21;4.20;;;1.10;;
24467;SDS011;12634;50.852;5.676;2023-07-13T11:25:56;4.68;;;1.23;;
24467;SDS011;12634;50.852;5.676;2023-07-13T11:28:25;4.43;;;1.10;;
24467;SDS011;12634;50.852;5.676;2023-07-13T11:31:00;6.03;;;1.40;;
24467;SDS011;12634;50.852;5.676;2023-07-13T11:33:45;5.93;;;1.33;;
24467;SDS011;12634;50.852;5.676;2023-07-13T11:36:19;5.18;;;1.50;;
24467;SDS011;12634;50.852;5.676;2023-07-13T11:38:51;10.05;;;1.75;;
24467;SDS011;12634;50.852;5.676;2023-07-13T11:41:26;3.92;;;1.13;;
24467;SDS011;12634;50.852;5.676;2023-07-13T11:44:02;4.53;;;1.40;;
24467;SDS011;12634;50.852;5.676;2023-07-13T11:46:33;3.88;;;1.65;;
24467;SDS011;12634;50.852;5.676;2023-07-13T11:49:01;7.28;;;1.50;;
24467;SDS011;12634;50.852;5.676;2023-07-13T11:51:33;6.80;;;1.65;;
24467;SDS011;12634;50.852;5.676;2023-07-13T11:54:04;2.30;;;1.05;;
24467;SDS011;12634;50.852;5.676;2023-07-13T11:56:33;7.07;;;1.27;;
24467;SDS011;12634;50.852;5.676;2023-07-13T11:59:03;12.40;;;1.75;;
24467;SDS011;12634;50.852;5.676;2023-07-13T12:01:33;4.40;;;1.40;;
24467;SDS011;12634;50.852;5.676;2023-07-13T12:04:08;7.00;;;1.40;;
24467;SDS011;12634;50.852;5.676;2023-07-13T12:06:49;6.20;;;1.30;;
24467;SDS011;12634;50.852;5.676;2023-07-13T12:09:25;4.90;;;1.40;;
24467;SDS011;12634;50.852;5.676;2023-07-13T12:11:55;6.82;;;1.40;;
24467;SDS011;12634;50.852;5.676;2023-07-13T12:14:25;4.97;;;1.52;;
24467;SDS011;12634;50.852;5.676;2023-07-13T12:16:52;4.93;;;1.15;;
24467;SDS011;12634;50.852;5.676;2023-07-13T12:19:22;5.90;;;1.17;;
24467;SDS011;12634;50.852;5.676;2023-07-13T12:21:54;6.57;;;1.40;;
24467;SDS011;12634;50.852;5.676;2023-07-13T12:24:23;5.93;;;1.40;;
24467;SDS011;12634;50.852;5.676;2023-07-13T12:26:52;4.43;;;1.17;;
24467;SDS011;12634;50.852;5.676;2023-07-13T12:29:21;5.15;;;1.42;;
24467;SDS011;12634;50.852;5.676;2023-07-13T12:31:49;6.13;;;1.20;;
24467;SDS011;12634;50.852;5.676;2023-07-13T12:34:18;4.82;;;1.38;;
24467;SDS011;12634;50.852;5.676;2023-07-13T12:36:47;6.10;;;1.33;;
24467;SDS011;12634;50.852;5.676;2023-07-13T12:39:19;5.80;;;1.30;;
24467;SDS011;12634;50.852;5.676;2023-07-13T12:41:49;6.60;;;1.35;;
24467;SDS011;12634;50.852;5.676;2023-07-13T12:44:18;5.65;;;1.45;;
24467;SDS011;12634;50.852;5.676;2023-07-13T12:46:55;7.38;;;1.83;;
24467;SDS011;12634;50.852;5.676;2023-07-13T12:49:27;9.88;;;1.30;;
24467;SDS011;12634;50.852;5.676;2023-07-13T12:51:58;8.00;;;1.40;;
24467;SDS011;12634;50.852;5.676;2023-07-13T12:54:29;6.95;;;1.33;;
24467;SDS011;12634;50.852;5.676;2023-07-13T12:56:58;4.82;;;1.17;;
24467;SDS011;12634;50.852;5.676;2023-07-13T12:59:31;2.30;;;1.02;;
24467;SDS011;12634;50.852;5.676;2023-07-13T13:02:01;3.13;;;0.80;;
24467;SDS011;12634;50.852;5.676;2023-07-13T13:04:39;3.78;;;1.05;;
24467;SDS011;12634;50.852;5.676;2023-07-13T13:07:08;5.88;;;1.10;;
24467;SDS011;12634;50.852;5.676;2023-07-13T13:09:38;4.30;;;0.85;;
24467;SDS011;12634;50.852;5.676;2023-07-13T13:12:05;2.83;;;0.90;;
24467;SDS011;12634;50.852;5.676;2023-07-13T13:14:35;3.38;;;1.25;;
24467;SDS011;12634;50.852;5.676;2023-07-13T13:17:04;4.00;;;1.10;;
24467;SDS011;12634;50.852;5.676;2023-07-13T13:19:44;2.85;;;0.80;;
24467;SDS011;12634;50.852;5.676;2023-07-13T13:22:12;1.30;;;0.68;;
24467;SDS011;12634;50.852;5.676;2023-07-13T13:24:41;4.53;;;0.90;;
24467;SDS011;12634;50.852;5.676;2023-07-13T13:27:12;4.18;;;1.00;;
24467;SDS011;12634;50.852;5.676;2023-07-13T13:32:09;4.50;;;0.85;;
24467;SDS011;12634;50.852;5.676;2023-07-13T13:34:39;2.22;;;0.77;;
24467;SDS011;12634;50.852;5.676;2023-07-13T13:37:09;3.90;;;1.05;;
24467;SDS011;12634;50.852;5.676;2023-07-13T13:39:45;7.35;;;1.00;;
24467;SDS011;12634;50.852;5.676;2023-07-13T13:42:13;4.65;;;0.77;;
24467;SDS011;12634;50.852;5.676;2023-07-13T13:44:41;8.30;;;1.02;;
24467;SDS011;12634;50.852;5.676;2023-07-13T13:47:15;5.40;;;1.25;;
24467;SDS011;12634;50.852;5.676;2023-07-13T13:49:54;6.50;;;1.50;;
24467;SDS011;12634;50.852;5.676;2023-07-13T13:52:21;4.00;;;1.25;;
24467;SDS011;12634;50.852;5.676;2023-07-13T13:54:50;7.20;;;1.15;;
24467;SDS011;12634;50.852;5.676;2023-07-13T13:57:21;3.53;;;1.05;;
24467;SDS011;12634;50.852;5.676;2023-07-13T13:59:49;5.78;;;1.15;;
24467;SDS011;12634;50.852;5.676;2023-07-13T14:02:22;3.60;;;0.80;;
24467;SDS011;12634;50.852;5.676;2023-07-13T14:04:50;3.33;;;1.10;;
24467;SDS011;12634;50.852;5.676;2023-07-13T14:07:21;3.53;;;0.73;;
24467;SDS011;12634;50.852;5.676;2023-07-13T14:09:48;3.38;;;0.85;;
24467;SDS011;12634;50.852;5.676;2023-07-13T14:12:18;5.18;;;1.10;;
24467;SDS011;12634;50.852;5.676;2023-07-13T14:14:45;3.30;;;0.93;;
24467;SDS011;12634;50.852;5.676;2023-07-13T14:17:17;3.72;;;1.00;;
24467;SDS011;12634;50.852;5.676;2023-07-13T14:19:47;5.43;;;1.30;;
24467;SDS011;12634;50.852;5.676;2023-07-13T14:22:22;6.15;;;1.15;;
24467;SDS011;12634;50.852;5.676;2023-07-13T14:24:51;8.13;;;1.33;;
24467;SDS011;12634;50.852;5.676;2023-07-13T14:27:19;9.48;;;1.35;;
24467;SDS011;12634;50.852;5.676;2023-07-13T14:29:46;3.60;;;1.40;;
24467;SDS011;12634;50.852;5.676;2023-07-13T14:32:13;7.20;;;1.35;;
24467;SDS011;12634;50.852;5.676;2023-07-13T14:34:41;5.22;;;1.52;;
24467;SDS011;12634;50.852;5.676;2023-07-13T14:37:11;6.03;;;1.50;;
24467;SDS011;12634;50.852;5.676;2023-07-13T14:39:42;5.75;;;1.50;;
24467;SDS011;12634;50.852;5.676;2023-07-13T14:42:12;3.65;;;1.02;;
24467;SDS011;12634;50.852;5.676;2023-07-13T14:44:39;6.85;;;1.55;;
24467;SDS011;12634;50.852;5.676;2023-07-13T14:47:07;6.45;;;1.50;;
24467;SDS011;12634;50.852;5.676;2023-07-13T14:49:37;4.22;;;1.30;;
24467;SDS011;12634;50.852;5.676;2023-07-13T14:52:09;5.25;;;1.20;;
24467;SDS011;12634;50.852;5.676;2023-07-13T14:54:39;4.40;;;1.35;;
24467;SDS011;12634;50.852;5.676;2023-07-13T14:57:13;5.97;;;1.60;;
24467;SDS011;12634;50.852;5.676;2023-07-13T14:59:42;2.75;;;1.20;;
24467;SDS011;12634;50.852;5.676;2023-07-13T15:02:16;5.38;;;1.25;;
24467;SDS011;12634;50.852;5.676;2023-07-13T15:04:52;4.60;;;1.70;;
24467;SDS011;12634;50.852;5.676;2023-07-13T15:07:20;5.03;;;1.10;;
24467;SDS011;12634;50.852;5.676;2023-07-13T15:09:48;4.78;;;1.50;;